sensor_id;sensor_type;location;lat;lon;timestamp;pressure;altitude;pressure_sealevel;temperature;humidity
7760;BME280;3924;48.830;9.262;2024-02-21T00:01:18;99632.47;;;7.21;75.64
7760;BME280;3924;48.830;9.262;2024-02-21T00:03:45;99638.88;;;7.20;75.56
7760;BME280;3924;48.830;9.262;2024-02-21T00:06:12;99629.16;;;7.19;75.94
7760;BME280;3924;48.830;9.262;2024-02-21T00:08:38;99629.75;;;7.21;75.85
7760;BME280;3924;48.830;9.262;2024-02-21T00:11:05;99639.97;;;7.19;75.89
7760;BME280;3924;48.830;9.262;2024-02-21T00:13:32;99634.56;;;7.19;75.85
7760;BME280;3924;48.830;9.262;2024-02-21T00:16:00;99636.44;;;7.19;75.79
7760;BME280;3924;48.830;9.262;2024-02-21T00:18:27;99626.47;;;7.19;75.96
7760;BME280;3924;48.830;9.262;2024-02-21T00:20:56;99628.34;;;7.19;75.91
7760;BME280;3924;48.830;9.262;2024-02-21T00:23:22;99624.84;;;7.18;75.96
7760;BME280;3924;48.830;9.262;2024-02-21T00:25:49;99620.00;;;7.20;76.00
7760;BME280;3924;48.830;9.262;2024-02-21T00:28:16;99606.53;;;7.20;75.91
7760;BME280;3924;48.830;9.262;2024-02-21T00:30:43;99605.50;;;7.21;75.98
7760;BME280;3924;48.830;9.262;2024-02-21T00:33:10;99593.31;;;7.19;75.86
7760;BME280;3924;48.830;9.262;2024-02-21T00:35:37;99594.38;;;7.18;76.03
7760;BME280;3924;48.830;9.262;2024-02-21T00:38:03;99590.84;;;7.17;75.95
7760;BME280;3924;48.830;9.262;2024-02-21T00:40:30;99592.47;;;7.18;75.97
7760;BME280;3924;48.830;9.262;2024-02-21T00:42:57;99587.09;;;7.18;75.94
7760;BME280;3924;48.830;9.262;2024-02-21T00:45:23;99588.72;;;7.19;75.99
7760;BME280;3924;48.830;9.262;2024-02-21T00:47:50;99585.81;;;7.21;75.86
7760;BME280;3924;48.830;9.262;2024-02-21T00:50:16;99583.31;;;7.19;75.83
7760;BME280;3924;48.830;9.262;2024-02-21T00:52:43;99584.97;;;7.20;75.72
7760;BME280;3924;48.830;9.262;2024-02-21T00:55:11;99574.16;;;7.20;76.14
7760;BME280;3924;48.830;9.262;2024-02-21T00:57:37;99575.84;;;7.21;75.93
7760;BME280;3924;48.830;9.262;2024-02-21T01:00:04;99570.44;;;7.21;76.18
7760;BME280;3924;48.830;9.262;2024-02-21T01:02:31;99576.66;;;7.22;75.87
7760;BME280;3924;48.830;9.262;2024-02-21T01:04:58;99568.78;;;7.20;76.05
7760;BME280;3924;48.830;9.262;2024-02-21T01:07:25;99568.78;;;7.20;75.96
7760;BME280;3924;48.830;9.262;2024-02-21T01:09:51;99562.81;;;7.18;76.12
7760;BME280;3924;48.830;9.262;2024-02-21T01:12:19;99565.78;;;7.17;76.12
7760;BME280;3924;48.830;9.262;2024-02-21T01:14:45;99560.84;;;7.13;76.05
7760;BME280;3924;48.830;9.262;2024-02-21T01:17:15;99554.63;;;7.13;76.55
7760;BME280;3924;48.830;9.262;2024-02-21T01:19:42;99555.47;;;7.13;76.39
7760;BME280;3924;48.830;9.262;2024-02-21T01:22:09;99546.56;;;7.13;76.30
7760;BME280;3924;48.830;9.262;2024-02-21T01:24:35;99548.22;;;7.14;76.28
7760;BME280;3924;48.830;9.262;2024-02-21T01:27:02;99534.72;;;7.14;76.24
7760;BME280;3924;48.830;9.262;2024-02-21T01:29:29;99536.84;;;7.12;76.17
7760;BME280;3924;48.830;9.262;2024-02-21T01:31:55;99536.84;;;7.12;76.15
7760;BME280;3924;48.830;9.262;2024-02-21T01:34:22;99533.06;;;7.13;76.27
7760;BME280;3924;48.830;9.262;2024-02-21T01:36:49;99526.31;;;7.10;76.26
7760;BME280;3924;48.830;9.262;2024-02-21T01:39:15;99515.53;;;7.10;76.53
7760;BME280;3924;48.830;9.262;2024-02-21T01:41:42;99517.97;;;7.12;76.36
7760;BME280;3924;48.830;9.262;2024-02-21T01:44:08;99520.09;;;7.10;76.34
7760;BME280;3924;48.830;9.262;2024-02-21T01:46:35;99510.13;;;7.10;76.46
7760;BME280;3924;48.830;9.262;2024-02-21T01:49:02;99508.25;;;7.11;76.40
7760;BME280;3924;48.830;9.262;2024-02-21T01:51:28;99503.09;;;7.09;76.17
7760;BME280;3924;48.830;9.262;2024-02-21T01:53:56;99497.72;;;7.09;76.40
7760;BME280;3924;48.830;9.262;2024-02-21T01:56:24;99492.56;;;7.08;76.42
7760;BME280;3924;48.830;9.262;2024-02-21T01:58:52;99489.28;;;7.06;76.37
7760;BME280;3924;48.830;9.262;2024-02-21T02:01:19;99484.97;;;7.05;76.45
7760;BME280;3924;48.830;9.262;2024-02-21T02:03:48;99484.97;;;7.05;76.57
7760;BME280;3924;48.830;9.262;2024-02-21T02:06:16;99484.47;;;7.08;76.70
7760;BME280;3924;48.830;9.262;2024-02-21T02:08:43;99472.53;;;7.04;76.30
7760;BME280;3924;48.830;9.262;2024-02-21T02:11:10;99473.34;;;7.04;76.58
7760;BME280;3924;48.830;9.262;2024-02-21T02:13:37;99470.41;;;7.06;76.54
7760;BME280;3924;48.830;9.262;2024-02-21T02:16:04;99473.91;;;7.06;76.58
7760;BME280;3924;48.830;9.262;2024-02-21T02:18:30;99472.88;;;7.07;76.47
7760;BME280;3924;48.830;9.262;2024-02-21T02:20:57;99473.69;;;7.08;76.93
7760;BME280;3924;48.830;9.262;2024-02-21T02:23:29;99458.09;;;7.10;76.56
7760;BME280;3924;48.830;9.262;2024-02-21T02:25:56;99449.44;;;7.08;76.75
7760;BME280;3924;48.830;9.262;2024-02-21T02:28:23;99443.53;;;7.11;76.51
7760;BME280;3924;48.830;9.262;2024-02-21T02:30:50;99442.47;;;7.12;76.65
7760;BME280;3924;48.830;9.262;2024-02-21T02:33:17;99442.47;;;7.12;76.50
7760;BME280;3924;48.830;9.262;2024-02-21T02:35:44;99442.47;;;7.12;76.80
7760;BME280;3924;48.830;9.262;2024-02-21T02:38:12;99438.97;;;7.11;76.45
7760;BME280;3924;48.830;9.262;2024-02-21T02:40:40;99433.31;;;7.13;76.41
7760;BME280;3924;48.830;9.262;2024-02-21T02:43:07;99436.00;;;7.13;76.49
7760;BME280;3924;48.830;9.262;2024-02-21T02:45:33;99431.69;;;7.12;76.77
7760;BME280;3924;48.830;9.262;2024-02-21T02:48:00;99421.72;;;7.12;76.50
7760;BME280;3924;48.830;9.262;2024-02-21T02:50:27;99411.25;;;7.16;76.70
7760;BME280;3924;48.830;9.262;2024-02-21T02:52:54;99412.88;;;7.17;76.40
7760;BME280;3924;48.830;9.262;2024-02-21T02:55:22;99411.25;;;7.16;76.62
7760;BME280;3924;48.830;9.262;2024-02-21T02:57:48;99408.00;;;7.14;76.58
7760;BME280;3924;48.830;9.262;2024-02-21T03:00:15;99399.31;;;7.12;76.62
7760;BME280;3924;48.830;9.262;2024-02-21T03:02:43;99396.06;;;7.10;76.40
7760;BME280;3924;48.830;9.262;2024-02-21T03:05:16;99384.47;;;7.09;76.66
7760;BME280;3924;48.830;9.262;2024-02-21T03:07:43;99376.66;;;7.08;76.61
7760;BME280;3924;48.830;9.262;2024-02-21T03:10:11;99379.34;;;7.08;77.19
7760;BME280;3924;48.830;9.262;2024-02-21T03:12:37;99387.91;;;7.05;76.77
7760;BME280;3924;48.830;9.262;2024-02-21T03:15:05;99393.81;;;7.02;77.12
7760;BME280;3924;48.830;9.262;2024-02-21T03:17:32;99405.06;;;6.99;76.82
7760;BME280;3924;48.830;9.262;2024-02-21T03:20:04;99401.50;;;6.93;77.06
7760;BME280;3924;48.830;9.262;2024-02-21T03:22:39;99419.47;;;6.88;77.11
7760;BME280;3924;48.830;9.262;2024-02-21T03:25:07;99416.97;;;6.81;77.15
7760;BME280;3924;48.830;9.262;2024-02-21T03:27:34;99419.31;;;6.77;77.14
7760;BME280;3924;48.830;9.262;2024-02-21T03:30:01;99417.03;;;6.69;77.21
7760;BME280;3924;48.830;9.262;2024-02-21T03:32:28;99397.03;;;6.65;77.43
7760;BME280;3924;48.830;9.262;2024-02-21T03:34:57;99396.81;;;6.67;77.44
7760;BME280;3924;48.830;9.262;2024-02-21T03:37:24;99384.97;;;6.68;77.48
7760;BME280;3924;48.830;9.262;2024-02-21T03:39:50;99385.78;;;6.68;77.74
7760;BME280;3924;48.830;9.262;2024-02-21T03:42:17;99389.28;;;6.69;77.58
7760;BME280;3924;48.830;9.262;2024-02-21T03:44:44;99383.63;;;6.70;77.77
7760;BME280;3924;48.830;9.262;2024-02-21T03:47:10;99378.81;;;6.72;77.80
7760;BME280;3924;48.830;9.262;2024-02-21T03:49:38;99365.94;;;6.74;77.75
7760;BME280;3924;48.830;9.262;2024-02-21T03:52:05;99370.50;;;6.74;77.83
7760;BME280;3924;48.830;9.262;2024-02-21T03:54:32;99382.09;;;6.74;77.93
7760;BME280;3924;48.830;9.262;2024-02-21T03:56:58;99368.88;;;6.73;77.91
7760;BME280;3924;48.830;9.262;2024-02-21T03:59:25;99367.56;;;6.75;77.97
7760;BME280;3924;48.830;9.262;2024-02-21T04:01:52;99364.59;;;6.77;77.89
7760;BME280;3924;48.830;9.262;2024-02-21T04:04:20;99362.47;;;6.79;77.99
7760;BME280;3924;48.830;9.262;2024-02-21T04:06:48;99362.72;;;6.77;77.70
7760;BME280;3924;48.830;9.262;2024-02-21T04:09:15;99366.22;;;6.78;77.90
7760;BME280;3924;48.830;9.262;2024-02-21T04:11:42;99358.16;;;6.78;78.02
7760;BME280;3924;48.830;9.262;2024-02-21T04:14:08;99343.59;;;6.79;78.00
7760;BME280;3924;48.830;9.262;2024-02-21T04:16:35;99349.25;;;6.77;78.16
7760;BME280;3924;48.830;9.262;2024-02-21T04:19:02;99342.25;;;6.76;78.26
7760;BME280;3924;48.830;9.262;2024-02-21T04:21:28;99340.88;;;6.74;78.05
7760;BME280;3924;48.830;9.262;2024-02-21T04:23:55;99317.91;;;6.71;78.43
7760;BME280;3924;48.830;9.262;2024-02-21T04:26:22;99313.84;;;6.69;78.46
7760;BME280;3924;48.830;9.262;2024-02-21T04:28:48;99313.84;;;6.69;78.28
7760;BME280;3924;48.830;9.262;2024-02-21T04:31:15;99310.59;;;6.67;78.60
7760;BME280;3924;48.830;9.262;2024-02-21T04:33:41;99325.34;;;6.64;78.31
7760;BME280;3924;48.830;9.262;2024-02-21T04:36:08;99323.72;;;6.63;78.39
7760;BME280;3924;48.830;9.262;2024-02-21T04:38:35;99321.28;;;6.62;78.52
7760;BME280;3924;48.830;9.262;2024-02-21T04:41:02;99330.44;;;6.61;78.32
7760;BME280;3924;48.830;9.262;2024-02-21T04:43:28;99311.25;;;6.57;78.49
7760;BME280;3924;48.830;9.262;2024-02-21T04:45:55;99315.81;;;6.56;78.62
7760;BME280;3924;48.830;9.262;2024-02-21T04:48:22;99310.13;;;6.53;78.53
7760;BME280;3924;48.830;9.262;2024-02-21T04:50:48;99308.50;;;6.52;78.53
7760;BME280;3924;48.830;9.262;2024-02-21T04:53:15;99308.16;;;6.48;78.43
7760;BME280;3924;48.830;9.262;2024-02-21T04:55:42;99314.88;;;6.46;78.66
7760;BME280;3924;48.830;9.262;2024-02-21T04:58:09;99328.00;;;6.42;78.57
7760;BME280;3924;48.830;9.262;2024-02-21T05:00:35;99335.75;;;6.39;78.72
7760;BME280;3924;48.830;9.262;2024-02-21T05:03:02;99339.44;;;6.33;78.67
7760;BME280;3924;48.830;9.262;2024-02-21T05:05:29;99342.59;;;6.29;78.99
7760;BME280;3924;48.830;9.262;2024-02-21T05:07:56;99345.28;;;6.29;78.76
7760;BME280;3924;48.830;9.262;2024-02-21T05:10:22;99333.16;;;6.27;78.97
7760;BME280;3924;48.830;9.262;2024-02-21T05:12:49;99337.72;;;6.26;78.93
7760;BME280;3924;48.830;9.262;2024-02-21T05:15:16;99333.41;;;6.25;78.82
7760;BME280;3924;48.830;9.262;2024-02-21T05:17:42;99335.50;;;6.23;79.02
7760;BME280;3924;48.830;9.262;2024-02-21T05:20:10;99333.41;;;6.25;78.80
7760;BME280;3924;48.830;9.262;2024-02-21T05:22:37;99312.44;;;6.27;79.11
7760;BME280;3924;48.830;9.262;2024-02-21T05:25:03;99311.91;;;6.30;78.81
7760;BME280;3924;48.830;9.262;2024-02-21T05:27:30;99306.31;;;6.32;79.06
7760;BME280;3924;48.830;9.262;2024-02-21T05:29:56;99280.75;;;6.35;78.72
7760;BME280;3924;48.830;9.262;2024-02-21T05:32:25;99268.09;;;6.35;78.84
7760;BME280;3924;48.830;9.262;2024-02-21T05:34:52;99285.06;;;6.36;78.70
7760;BME280;3924;48.830;9.262;2024-02-21T05:37:19;99284.00;;;6.37;78.53
7760;BME280;3924;48.830;9.262;2024-02-21T05:39:45;99278.31;;;6.33;78.74
7760;BME280;3924;48.830;9.262;2024-02-21T05:42:12;99272.59;;;6.29;78.71
7760;BME280;3924;48.830;9.262;2024-02-21T05:44:38;99273.09;;;6.26;79.16
7760;BME280;3924;48.830;9.262;2024-02-21T05:47:05;99268.78;;;6.25;78.96
7760;BME280;3924;48.830;9.262;2024-02-21T05:49:36;99263.41;;;6.25;78.87
7760;BME280;3924;48.830;9.262;2024-02-21T05:52:04;99260.38;;;6.22;78.60
7760;BME280;3924;48.830;9.262;2024-02-21T05:54:32;99263.31;;;6.20;78.92
7760;BME280;3924;48.830;9.262;2024-02-21T05:56:59;99255.25;;;6.20;78.93
7760;BME280;3924;48.830;9.262;2024-02-21T05:59:25;99248.22;;;6.19;79.02
7760;BME280;3924;48.830;9.262;2024-02-21T06:01:56;99254.69;;;6.18;78.96
7760;BME280;3924;48.830;9.262;2024-02-21T06:04:24;99247.63;;;6.17;79.11
7760;BME280;3924;48.830;9.262;2024-02-21T06:06:51;99249.28;;;6.18;78.98
7760;BME280;3924;48.830;9.262;2024-02-21T06:09:17;99240.41;;;6.18;79.00
7760;BME280;3924;48.830;9.262;2024-02-21T06:11:44;99255.25;;;6.20;79.05
7760;BME280;3924;48.830;9.262;2024-02-21T06:14:12;99255.81;;;6.22;78.71
7760;BME280;3924;48.830;9.262;2024-02-21T06:16:39;99257.44;;;6.23;78.65
7760;BME280;3924;48.830;9.262;2024-02-21T06:19:06;99259.06;;;6.24;78.93
7760;BME280;3924;48.830;9.262;2024-02-21T06:21:36;99255.81;;;6.22;78.87
7760;BME280;3924;48.830;9.262;2024-02-21T06:24:03;99252.56;;;6.20;78.57
7760;BME280;3924;48.830;9.262;2024-02-21T06:26:30;99257.13;;;6.20;78.78
7760;BME280;3924;48.830;9.262;2024-02-21T06:28:56;99258.41;;;6.17;78.69
7760;BME280;3924;48.830;9.262;2024-02-21T06:31:24;99257.28;;;6.13;78.79
7760;BME280;3924;48.830;9.262;2024-02-21T06:33:50;99249.47;;;6.12;78.57
7760;BME280;3924;48.830;9.262;2024-02-21T06:36:18;99255.88;;;6.11;78.90
7760;BME280;3924;48.830;9.262;2024-02-21T06:38:45;99269.13;;;6.12;78.63
7760;BME280;3924;48.830;9.262;2024-02-21T06:41:15;99271.00;;;6.12;78.79
7760;BME280;3924;48.830;9.262;2024-02-21T06:43:43;99265.84;;;6.10;78.70
7760;BME280;3924;48.830;9.262;2024-02-21T06:46:09;99273.44;;;6.13;78.69
7760;BME280;3924;48.830;9.262;2024-02-21T06:48:36;99260.53;;;6.15;78.55
7760;BME280;3924;48.830;9.262;2024-02-21T06:51:03;99270.03;;;6.18;78.57
7760;BME280;3924;48.830;9.262;2024-02-21T06:53:30;99260.38;;;6.22;78.64
7760;BME280;3924;48.830;9.262;2024-02-21T06:55:56;99251.56;;;6.26;78.56
7760;BME280;3924;48.830;9.262;2024-02-21T06:58:23;99244.13;;;6.34;78.09
7760;BME280;3924;48.830;9.262;2024-02-21T07:00:49;99241.50;;;6.39;78.21
7760;BME280;3924;48.830;9.262;2024-02-21T07:03:16;99246.94;;;6.44;77.97
7760;BME280;3924;48.830;9.262;2024-02-21T07:05:42;99244.84;;;6.46;77.72
7760;BME280;3924;48.830;9.262;2024-02-21T07:08:09;99244.34;;;6.49;77.96
7760;BME280;3924;48.830;9.262;2024-02-21T07:10:36;99236.00;;;6.50;77.78
7760;BME280;3924;48.830;9.262;2024-02-21T07:13:03;99232.22;;;6.51;77.64
7760;BME280;3924;48.830;9.262;2024-02-21T07:15:29;99230.44;;;6.57;77.69
7760;BME280;3924;48.830;9.262;2024-02-21T07:17:57;99227.28;;;6.65;77.66
7760;BME280;3924;48.830;9.262;2024-02-21T07:20:23;99227.13;;;6.72;77.37
7760;BME280;3924;48.830;9.262;2024-02-21T07:22:50;99224.75;;;6.75;77.28
7760;BME280;3924;48.830;9.262;2024-02-21T07:25:17;99213.22;;;6.80;77.38
7760;BME280;3924;48.830;9.262;2024-02-21T07:27:44;99216.75;;;6.85;76.97
7760;BME280;3924;48.830;9.262;2024-02-21T07:30:11;99214.94;;;6.91;77.17
7760;BME280;3924;48.830;9.262;2024-02-21T07:32:42;99222.91;;;7.03;77.06
7760;BME280;3924;48.830;9.262;2024-02-21T07:35:09;99217.06;;;7.11;76.48
7760;BME280;3924;48.830;9.262;2024-02-21T07:37:39;99208.50;;;7.19;76.56
7760;BME280;3924;48.830;9.262;2024-02-21T07:40:06;99215.09;;;7.28;76.50
7760;BME280;3924;48.830;9.262;2024-02-21T07:42:33;99211.13;;;7.36;76.12
7760;BME280;3924;48.830;9.262;2024-02-21T07:44:59;99203.69;;;7.48;75.94
7760;BME280;3924;48.830;9.262;2024-02-21T07:47:26;99204.53;;;7.54;75.86
7760;BME280;3924;48.830;9.262;2024-02-21T07:49:53;99205.66;;;7.58;75.50
7760;BME280;3924;48.830;9.262;2024-02-21T07:52:19;99195.41;;;7.60;75.62
7760;BME280;3924;48.830;9.262;2024-02-21T07:54:46;99189.50;;;7.63;75.64
7760;BME280;3924;48.830;9.262;2024-02-21T07:57:13;99185.22;;;7.67;75.65
7760;BME280;3924;48.830;9.262;2024-02-21T07:59:39;99179.31;;;7.75;75.06
7760;BME280;3924;48.830;9.262;2024-02-21T08:02:06;99182.06;;;7.80;75.16
7760;BME280;3924;48.830;9.262;2024-02-21T08:04:33;99181.31;;;7.85;75.06
7760;BME280;3924;48.830;9.262;2024-02-21T08:07:00;99179.47;;;7.90;75.09
7760;BME280;3924;48.830;9.262;2024-02-21T08:09:28;99177.56;;;7.91;74.97
7760;BME280;3924;48.830;9.262;2024-02-21T08:11:55;99185.94;;;7.94;74.85
7760;BME280;3924;48.830;9.262;2024-02-21T08:14:22;99186.00;;;8.00;74.75
7760;BME280;3924;48.830;9.262;2024-02-21T08:16:51;99180.63;;;8.05;74.55
7760;BME280;3924;48.830;9.262;2024-02-21T08:19:20;99183.66;;;8.13;74.26
7760;BME280;3924;48.830;9.262;2024-02-21T08:21:47;99185.59;;;8.23;74.18
7760;BME280;3924;48.830;9.262;2024-02-21T08:24:14;99176.44;;;8.29;73.89
7760;BME280;3924;48.830;9.262;2024-02-21T08:26:41;99178.44;;;8.39;73.82
7760;BME280;3924;48.830;9.262;2024-02-21T08:29:08;99183.31;;;8.47;73.60
7760;BME280;3924;48.830;9.262;2024-02-21T08:31:34;99178.19;;;8.50;73.40
7760;BME280;3924;48.830;9.262;2024-02-21T08:34:01;99173.91;;;8.55;73.37
7760;BME280;3924;48.830;9.262;2024-02-21T08:36:31;99170.66;;;8.58;73.11
7760;BME280;3924;48.830;9.262;2024-02-21T08:38:59;99168.25;;;8.61;73.24
7760;BME280;3924;48.830;9.262;2024-02-21T08:41:26;99156.91;;;8.64;73.07
7760;BME280;3924;48.830;9.262;2024-02-21T08:44:13;99149.09;;;8.68;72.77
7760;BME280;3924;48.830;9.262;2024-02-21T08:46:39;99146.94;;;8.75;73.20
7760;BME280;3924;48.830;9.262;2024-02-21T08:49:06;99144.53;;;8.73;72.81
7760;BME280;3924;48.830;9.262;2024-02-21T08:51:33;99142.34;;;8.75;73.00
7760;BME280;3924;48.830;9.262;2024-02-21T08:54:00;99155.59;;;8.77;72.83
7760;BME280;3924;48.830;9.262;2024-02-21T08:56:27;99147.25;;;8.79;72.67
7760;BME280;3924;48.830;9.262;2024-02-21T08:58:56;99149.13;;;8.83;72.49
7760;BME280;3924;48.830;9.262;2024-02-21T09:01:24;99141.56;;;8.85;72.36
7760;BME280;3924;48.830;9.262;2024-02-21T09:03:50;99135.38;;;8.90;72.34
7760;BME280;3924;48.830;9.262;2024-02-21T09:06:20;99125.09;;;8.97;72.45
7760;BME280;3924;48.830;9.262;2024-02-21T09:08:46;99129.44;;;9.03;72.16
7760;BME280;3924;48.830;9.262;2024-02-21T09:11:13;99124.03;;;9.08;72.04
7760;BME280;3924;48.830;9.262;2024-02-21T09:13:40;99111.88;;;9.11;71.70
7760;BME280;3924;48.830;9.262;2024-02-21T09:16:07;99118.38;;;9.15;71.63
7760;BME280;3924;48.830;9.262;2024-02-21T09:18:33;99118.09;;;9.16;71.70
7760;BME280;3924;48.830;9.262;2024-02-21T09:21:00;99114.03;;;9.19;71.68
7760;BME280;3924;48.830;9.262;2024-02-21T09:23:26;99118.38;;;9.15;71.75
7760;BME280;3924;48.830;9.262;2024-02-21T09:25:53;99115.13;;;9.13;71.76
7760;BME280;3924;48.830;9.262;2024-02-21T09:28:21;99110.78;;;9.12;71.65
7760;BME280;3924;48.830;9.262;2024-02-21T09:30:49;99105.38;;;9.17;71.41
7760;BME280;3924;48.830;9.262;2024-02-21T09:33:15;99100.50;;;9.19;71.58
7760;BME280;3924;48.830;9.262;2024-02-21T09:35:57;99098.34;;;9.26;71.41
7760;BME280;3924;48.830;9.262;2024-02-21T09:38:24;99100.25;;;9.30;71.22
7760;BME280;3924;48.830;9.262;2024-02-21T09:40:59;99098.34;;;9.31;70.95
7760;BME280;3924;48.830;9.262;2024-02-21T09:43:29;99097.81;;;9.34;71.34
7760;BME280;3924;48.830;9.262;2024-02-21T09:45:58;99099.97;;;9.42;71.04
7760;BME280;3924;48.830;9.262;2024-02-21T09:48:48;99085.09;;;9.55;70.41
7760;BME280;3924;48.830;9.262;2024-02-21T09:51:18;99089.94;;;9.68;70.23
7760;BME280;3924;48.830;9.262;2024-02-21T09:53:45;99086.41;;;9.73;70.19
7760;BME280;3924;48.830;9.262;2024-02-21T09:56:28;99088.03;;;9.79;70.37
7760;BME280;3924;48.830;9.262;2024-02-21T09:58:54;99080.69;;;9.84;69.93
7760;BME280;3924;48.830;9.262;2024-02-21T10:01:22;99079.31;;;9.92;69.22
7760;BME280;3924;48.830;9.262;2024-02-21T10:04:00;99082.78;;;10.08;69.51
7760;BME280;3924;48.830;9.262;2024-02-21T10:06:29;99074.94;;;10.17;69.31
7760;BME280;3924;48.830;9.262;2024-02-21T10:08:55;99070.56;;;10.31;68.60
7760;BME280;3924;48.830;9.262;2024-02-21T10:11:25;99066.44;;;10.44;68.39
7760;BME280;3924;48.830;9.262;2024-02-21T10:14:07;99057.44;;;10.53;67.85
7760;BME280;3924;48.830;9.262;2024-02-21T10:16:35;99050.63;;;10.56;68.24
7760;BME280;3924;48.830;9.262;2024-02-21T10:19:03;99055.19;;;10.65;68.03
7760;BME280;3924;48.830;9.262;2024-02-21T10:21:30;99050.00;;;10.69;67.53
7760;BME280;3924;48.830;9.262;2024-02-21T10:23:57;99043.25;;;10.66;67.46
7760;BME280;3924;48.830;9.262;2024-02-21T10:26:23;99041.09;;;10.63;67.42
7760;BME280;3924;48.830;9.262;2024-02-21T10:28:50;99029.09;;;10.75;67.25
7760;BME280;3924;48.830;9.262;2024-02-21T10:31:26;99040.91;;;10.89;66.81
7760;BME280;3924;48.830;9.262;2024-02-21T10:33:57;99027.34;;;10.94;66.37
7760;BME280;3924;48.830;9.262;2024-02-21T10:36:25;99024.03;;;10.97;66.16
7760;BME280;3924;48.830;9.262;2024-02-21T10:38:52;99026.09;;;11.10;66.02
7760;BME280;3924;48.830;9.262;2024-02-21T10:41:19;99024.94;;;11.21;65.92
7760;BME280;3924;48.830;9.262;2024-02-21T10:43:50;99012.59;;;11.34;65.17
7760;BME280;3924;48.830;9.262;2024-02-21T10:46:19;99016.31;;;11.43;64.98
7760;BME280;3924;48.830;9.262;2024-02-21T10:48:47;99005.06;;;11.55;64.51
7760;BME280;3924;48.830;9.262;2024-02-21T10:51:16;98998.50;;;11.61;64.35
7760;BME280;3924;48.830;9.262;2024-02-21T10:56:30;98992.50;;;11.59;63.42
7760;BME280;3924;48.830;9.262;2024-02-21T10:59:04;98983.97;;;11.47;64.20
7760;BME280;3924;48.830;9.262;2024-02-21T11:01:32;98980.72;;;11.45;64.07
7760;BME280;3924;48.830;9.262;2024-02-21T11:04:01;98980.97;;;11.48;63.81
7760;BME280;3924;48.830;9.262;2024-02-21T11:06:46;98972.56;;;11.45;63.25
7760;BME280;3924;48.830;9.262;2024-02-21T11:09:13;98969.84;;;11.45;63.62
7760;BME280;3924;48.830;9.262;2024-02-21T11:11:42;98962.47;;;11.50;63.05
7760;BME280;3924;48.830;9.262;2024-02-21T11:14:20;98954.50;;;11.59;62.96
7760;BME280;3924;48.830;9.262;2024-02-21T11:16:48;98943.63;;;11.59;63.32
7760;BME280;3924;48.830;9.262;2024-02-21T11:19:22;98941.72;;;11.60;62.78
7760;BME280;3924;48.830;9.262;2024-02-21T11:21:51;98934.41;;;11.60;62.88
7760;BME280;3924;48.830;9.262;2024-02-21T11:24:30;98930.59;;;11.61;62.83
7760;BME280;3924;48.830;9.262;2024-02-21T11:27:12;98926.78;;;11.62;62.61
7760;BME280;3924;48.830;9.262;2024-02-21T11:29:43;98920.31;;;11.58;62.56
7760;BME280;3924;48.830;9.262;2024-02-21T11:32:10;98916.47;;;11.59;62.60
7760;BME280;3924;48.830;9.262;2024-02-21T11:34:38;98899.16;;;11.55;62.12
7760;BME280;3924;48.830;9.262;2024-02-21T11:37:13;98902.63;;;11.61;62.30
7760;BME280;3924;48.830;9.262;2024-02-21T11:39:43;98897.06;;;11.71;61.67
7760;BME280;3924;48.830;9.262;2024-02-21T11:42:10;98900.22;;;11.78;61.66
7760;BME280;3924;48.830;9.262;2024-02-21T11:44:38;98885.81;;;11.83;61.30
7760;BME280;3924;48.830;9.262;2024-02-21T11:47:06;98881.31;;;11.92;60.89
7760;BME280;3924;48.830;9.262;2024-02-21T11:49:38;98879.59;;;12.01;60.66
7760;BME280;3924;48.830;9.262;2024-02-21T11:52:08;98874.59;;;12.08;60.22
7760;BME280;3924;48.830;9.262;2024-02-21T11:54:34;98872.94;;;12.07;60.39
7760;BME280;3924;48.830;9.262;2024-02-21T11:57:01;98868.72;;;12.01;59.89
7760;BME280;3924;48.830;9.262;2024-02-21T11:59:32;98859.47;;;12.02;59.93
7760;BME280;3924;48.830;9.262;2024-02-21T12:02:00;98856.75;;;12.02;59.81
7760;BME280;3924;48.830;9.262;2024-02-21T12:04:27;98852.41;;;12.01;59.57
7760;BME280;3924;48.830;9.262;2024-02-21T12:06:55;98849.75;;;11.96;59.63
7760;BME280;3924;48.830;9.262;2024-02-21T12:09:23;98843.28;;;11.92;59.70
7760;BME280;3924;48.830;9.262;2024-02-21T12:12:06;98834.13;;;11.88;59.47
7760;BME280;3924;48.830;9.262;2024-02-21T12:14:35;98835.44;;;11.90;59.45
7760;BME280;3924;48.830;9.262;2024-02-21T12:17:02;98834.03;;;11.93;59.30
7760;BME280;3924;48.830;9.262;2024-02-21T12:19:33;98823.16;;;11.93;58.96
7760;BME280;3924;48.830;9.262;2024-02-21T12:22:00;98815.44;;;12.00;58.56
7760;BME280;3924;48.830;9.262;2024-02-21T12:24:28;98813.16;;;12.07;58.35
7760;BME280;3924;48.830;9.262;2024-02-21T12:26:56;98801.22;;;12.08;58.35
7760;BME280;3924;48.830;9.262;2024-02-21T12:29:23;98797.91;;;12.11;58.48
7760;BME280;3924;48.830;9.262;2024-02-21T12:31:55;98800.44;;;12.21;58.00
7760;BME280;3924;48.830;9.262;2024-02-21T12:34:23;98793.53;;;12.29;57.61
7760;BME280;3924;48.830;9.262;2024-02-21T12:37:04;98778.94;;;12.39;57.35
7760;BME280;3924;48.830;9.262;2024-02-21T12:39:31;98773.31;;;12.49;57.13
7760;BME280;3924;48.830;9.262;2024-02-21T12:41:59;98767.78;;;12.54;57.10
7760;BME280;3924;48.830;9.262;2024-02-21T12:44:25;98764.56;;;12.52;56.88
7760;BME280;3924;48.830;9.262;2024-02-21T12:46:52;98760.56;;;12.49;57.01
7760;BME280;3924;48.830;9.262;2024-02-21T12:49:20;98752.91;;;12.51;56.59
7760;BME280;3924;48.830;9.262;2024-02-21T12:51:47;98743.63;;;12.52;56.40
7760;BME280;3924;48.830;9.262;2024-02-21T12:54:14;98740.59;;;12.54;56.24
7760;BME280;3924;48.830;9.262;2024-02-21T12:56:41;98725.31;;;12.58;55.98
7760;BME280;3924;48.830;9.262;2024-02-21T12:59:07;98729.31;;;12.60;55.73
7760;BME280;3924;48.830;9.262;2024-02-21T13:01:36;98726.28;;;12.62;55.74
7760;BME280;3924;48.830;9.262;2024-02-21T13:04:04;98716.44;;;12.66;55.62
7760;BME280;3924;48.830;9.262;2024-02-21T13:06:30;98720.19;;;12.70;55.43
7760;BME280;3924;48.830;9.262;2024-02-21T13:08:57;98709.78;;;12.72;55.39
7760;BME280;3924;48.830;9.262;2024-02-21T13:11:23;98711.22;;;12.70;54.95
7760;BME280;3924;48.830;9.262;2024-02-21T13:13:53;98693.06;;;12.65;54.40
7760;BME280;3924;48.830;9.262;2024-02-21T13:16:20;98695.69;;;12.70;54.85
7760;BME280;3924;48.830;9.262;2024-02-21T13:18:46;98693.78;;;12.71;54.65
7760;BME280;3924;48.830;9.262;2024-02-21T13:21:14;98690.25;;;12.70;54.36
7760;BME280;3924;48.830;9.262;2024-02-21T13:23:41;98679.38;;;12.70;54.26
7760;BME280;3924;48.830;9.262;2024-02-21T13:26:07;98674.81;;;12.79;53.91
7760;BME280;3924;48.830;9.262;2024-02-21T13:28:34;98673.13;;;12.83;53.30
7760;BME280;3924;48.830;9.262;2024-02-21T13:31:00;98662.72;;;12.85;53.86
7760;BME280;3924;48.830;9.262;2024-02-21T13:33:27;98654.34;;;12.82;53.55
7760;BME280;3924;48.830;9.262;2024-02-21T13:35:55;98646.50;;;12.80;53.46